WEATHER DATA

TODAY
Time Temp. Dewp. Hum. Bar. 1h Prec. 24h Prec.
00:09 13 13 100 1016.4 0.0000 0.0000
00:19 12.9 12.9 100 1016.5 0.0000 0.0000
00:29 12.9 12.9 100 1016.6 0.0000 0.0000
00:39 12.9 12.9 100 1016.5 0.0000 0.0000
00:49 12.9 12.9 100 1016.5 0.0000 0.0000
00:59 12.8 12.8 100 1016.5 0.0000 0.0000
01:10 12.8 12.8 100 1016.5 0.0000 0.0000
01:20 12.8 12.8 100 1016.4 0.0000 0.0000
01:30 12.7 12.7 100 1016.4 0.0000 0.0000
01:40 12.7 12.7 100 1016.3 0.0000 0.0000
01:50 12.7 12.7 100 1016.2 0.0000 0.0000
02:00 12.7 12.7 100 1016.1 0.0000 0.0000
02:10 12.7 12.7 100 1016.2 0.0000 0.0000
02:20 12.6 12.6 100 1016.1 0.0000 0.0000
02:31 12.6 12.6 100 1016.1 0.0000 0.0000
02:40 12.6 12.6 100 1016.1 0.0000 0.0000
02:50 12.5 12.5 100 1016.1 0.0000 0.0000
03:01 12.5 12.5 100 1016.2 0.0000 0.0000
03:11 12.5 12.5 100 1016.3 0.0000 0.0000
03:21 12.5 12.5 100 1016.3 0.0000 0.0000
03:31 12.5 12.5 100 1016.2 0.0000 0.0000
03:41 12.5 12.5 100 1016.1 0.0000 0.0000
03:51 12.4 12.4 100 1016.1 0.0000 0.0000
04:01 12.4 12.4 100 1016.1 0.0000 0.0000
04:12 12.4 12.4 100 1016.1 0.0000 0.0000
04:22 12.3 12.3 100 1016.2 0.0000 0.0000
04:31 12.3 12.3 100 1016.1 0.0000 0.0000
04:41 12.2 12.2 100 1016.2 0.0000 0.0000
04:52 12 12 100 1016.2 0.0000 0.0000
05:02 11.8 11.8 100 1016.3 0.0000 0.0000
05:12 11.5 11.5 100 1016.3 0.0000 0.0000
05:22 11.3 11.3 100 1016.3 0.0000 0.0000
05:32 11.1 11.1 100 1016.2 0.0000 0.0000
05:42 10.8 10.8 100 1016.4 0.0000 0.0000
05:52 10.5 10.5 100 1016.4 0.0000 0.0000
06:02 10.3 10.3 100 1016.4 0.0000 0.0000
06:12 10 10 100 1016.4 0.0000 0.0000
06:22 9.7 9.7 100 1016.4 0.0000 0.0000
06:33 9.5 9.5 100 1016.4 0.0000 0.0000
06:43 9.2 9.2 100 1016.5 0.0000 0.0000
06:53 9 9 100 1016.4 0.0000 0.0000
07:02 8.8 8.8 100 1016.5 0.0000 0.0000
07:13 8.5 8.5 100 1016.6 0.0000 0.0000
07:23 8.3 8.3 100 1016.6 0.0000 0.0000
07:33 8.1 8.1 100 1016.7 0.0000 0.0000
07:44 7.9 7.9 100 1017 0.0000 0.0000
07:53 7.7 7.7 100 1017 0.0000 0.0000
08:03 7.6 7.6 100 1017.2 0.0000 0.0000
08:13 7.5 7.5 100 1017.3 0.0000 0.0000
08:34 7.2 7.2 100 1017.5 0.0000 0.0000
08:43 7.2 7.2 100 1017.6 0.0000 0.0000
08:54 7.1 7.1 100 1017.7 0.0000 0.0000
09:04 7.2 7.2 100 1017.7 0.0000 0.0000
09:14 7.3 7.3 100 1017.9 0.0000 0.0000
09:24 7.4 7.4 100 1018 0.0000 0.0000
09:34 7.6 7.6 100 1018.1 0.0000 0.0000
09:44 7.9 7.9 100 1018.3 0.0000 0.0000
09:54 8.4 8.4 100 1018.3 0.0000 0.0000
10:04 8.8 8.8 100 1018.5 0.0000 0.0000
10:15 9.1 9.1 100 1018.6 0.0000 0.0000
10:25 9.5 9.4 99 1018.6 0.0000 0.0000
10:35 9.8 9.3 97 1018.8 0.0000 0.0000
10:45 10 9.2 95 1019 0.0000 0.0000
10:55 10.2 9.1 93 1019.2 0.0000 0.0000
11:05 10.4 9.2 92 1019.3 0.0000 0.0000
11:15 10.7 8.8 88 1019.3 0.0000 0.0000
11:26 10.8 8.9 88 1019.2 0.0000 0.0000
11:36 10.9 9.2 89 1019.2 0.0000 0.0000
11:45 10.9 9.2 89 1019.1 0.0000 0.0000
11:56 11 9.3 89 1019.1 0.0000 0.0000
12:06 11 9.1 88 1019.2 0.0000 0.0000
12:16 11.1 8.8 86 1019.2 0.0000 0.0000
12:26 11.2 8.8 85 1019.2 0.0000 0.0000
12:37 11.3 8.7 84 1019.2 0.0000 0.0000
12:46 11.4 8.8 84 1019.3 0.0000 0.0000
12:56 11.5 8.7 83 1019.3 0.0000 0.0000
13:06 11.5 8.9 84 1019.3 0.0000 0.0000
13:17 11.7 8.9 83 1019.4 0.0000 0.0000
13:27 11.8 9 83 1019.4 0.0000 0.0000
13:37 11.9 9.1 83 1019.4 0.0000 0.0000
13:48 12 9.2 83 1019.4 0.0000 0.0000
13:57 12.1 9.3 83 1019.4 0.0000 0.0000
14:07 12.1 9.3 83 1019.3 0.0000 0.0000
14:17 12.1 9.1 82 1019.3 0.0000 0.0000
14:28 12 9.2 83 1019.4 0.0000 0.0000
14:38 11.9 9.1 83 1019.4 0.0000 0.0000
14:48 11.8 9 83 1019.4 0.0000 0.0000
14:58 11.8 9 83 1019.4 0.0000 0.0000
15:08 11.8 9 83 1019.5 0.0000 0.0000
15:18 11.9 9.3 84 1019.5 0.0000 0.0000
15:28 11.8 9 83 1019.5 0.0000 0.0000
15:39 11.6 8.8 83 1019.5 0.0000 0.0000
15:49 11.5 8.9 84 1019.6 0.0000 0.0000
15:59 11.3 8.7 84 1019.7 0.0000 0.0000
16:08 11.1 8.5 84 1019.6 0.0000 0.0000
16:19 11 8.6 85 1019.6 0.0000 0.0000
16:29 10.8 8.4 85 1019.7 0.0000 0.0000
16:39 10.8 8.4 85 1019.7 0.0000 0.0000
16:50 10.7 8.3 85 1019.8 0.0000 0.0000
17:00 10.5 8.3 86 1019.9 0.0000 0.0000
17:09 10.4 8.2 86 1020 0.0000 0.0000
17:19 10.2 8.1 87 1020 0.0000 0.0000
17:30 10 8.1 88 1020.1 0.0000 0.0000

DAY STATISTIC

2018-10-18
TEMPERATURE
AVERAGE
10.9
HIGH
13.0
00:09
LOW
7.1
08:54
PRESSURE
AVERAGE
1017.8
HIGH
1020.1
17:30
LOW
1016.1
02:00
DEWPOINT
AVERAGE
9.9
HIGH
13.0
00:09
LOW
7.1
08:54
HUMIDITY
AVERAGE
94
HIGH
100
00:09
LOW
82
14:17
PRECIPITATION
RAIN HOUR
0.0
RAIN DAY
0.0
TEMPERATURE (°C)
LOW
7.1
HIGH
13.0
AVERAGE
10.9
PRESSURE (hpa)
LOW
1016.1
HIGH
1020.1
AVERAGE
1017.8
DEVICE